Latest Coastal Weather Observations for South Johnstone

IDQ60701

Issued at 10:13 pm EST Thursday 30 July 2015 (issued every 10 minutes, with the page automatically refreshed every 10 minutes)

About coastal observations | Map of coastal stations | Coastal observations for QLD | Marine services | Other Formats
Station Details ID: 032037 Name: SOUTH JOHNSTONE EXP STN Lat: -17.61 Lon: 146.00 Height: 18.3 m
Data from the previous 72 hours. | See also: Recent months at South Johnstone
Date/Time
EST
Temp

°C
Wind Pressure Rain
since 9am
mm
Weather Cloud Vis
km
Sea
Height
m
Swell
Dir
 
Speed
knots
Gust
knots
hPa Trend Height
m
Period
s
Dir
30/10:00pm 18.7 WNW 1 3 1021.7 - 1.0 - - - - - - -
30/09:30pm 18.6 WSW 2 5 1021.8 - 0.8 - - - - - - -
30/09:00pm 18.8 CALM 0 0 1021.8 - 0.6 - - - - - - -
30/08:30pm 19.1 WSW 5 7 1021.7 - 0.0 - - - - - - -
30/08:00pm 19.1 WSW 5 7 1021.4 - 0.0 - - - - - - -
30/07:30pm 19.6 SW 5 8 1021.1 - 0.0 - - - - - - -
30/07:00pm 20.2 SW 6 9 1020.8 - 0.0 - - - - - - -
30/06:30pm 20.4 SSW 8 13 1020.7 - 0.0 - - - - - - -
30/06:00pm 20.8 S 6 10 1020.5 - 0.0 - - - - - - -
30/05:30pm 20.9 SSW 6 9 1020.4 - 0.0 - - - - - - -
30/05:00pm 21.4 S 7 11 1020.2 - 0.0 - - - - - - -
30/04:30pm 22.1 S 8 13 1020.1 - 0.0 - - - - - - -
30/04:00pm 22.5 S 8 13 1019.9 - 0.0 - - - - - - -
30/03:30pm 22.2 SSE 9 15 1019.9 - 0.0 - - - - - - -
30/03:00pm 22.6 SSE 9 15 1020.0 - 0.0 - - - - - - -
30/02:30pm 23.1 SSE 9 13 1020.2 - 0.0 - - - - - - -
30/02:00pm 23.1 SSE 10 16 1020.6 - 0.0 - - - - - - -
30/01:30pm 22.6 SSE 8 14 1021.0 - 0.0 - - - - - - -
30/01:00pm 22.8 SSE 10 14 1021.3 - 0.0 - - - - - - -
30/12:30pm 23.2 SE 11 18 1021.8 - 0.0 - - - - - - -
30/12:00pm 22.9 S 12 16 1022.0 - 0.0 - - - - - - -
30/11:30am 22.8 S 11 17 1022.5 - 0.0 - - - - - - -
30/11:00am 22.2 SSE 11 15 1022.9 - 0.0 - - - - - - -
30/10:30am 22.4 S 11 16 1023.0 - 0.0 - - - - - - -
30/10:00am 22.1 S 9 16 1023.4 - 0.0 - - - - - - -
30/09:30am 21.9 S 8 13 1023.2 - 0.0 - - - - - - -
30/09:00am 21.6 S 8 14 1022.8 - 1.0 - - - - - - -
30/08:30am 21.0 S 8 14 1022.6 - 1.0 - - - - - - -
30/08:00am 20.4 S 9 13 1022.4 - 1.0 - - - - - - -
30/07:30am 20.1 S 4 5 1022.2 - 1.0 - - - - - - -
30/07:00am 19.9 S 3 6 1021.9 - 1.0 - - - - - - -
30/06:30am 19.8 S 4 7 1021.6 - 1.0 - - - - - - -
30/06:00am 19.3 S 2 6 1021.2 - 1.0 - - - - - - -
30/05:30am 19.7 S 4 7 1021.1 - 1.0 - - - - - - -
30/05:00am 19.5 S 4 6 1021.0 - 1.0 - - - - - - -
30/04:30am 19.5 SSE 4 8 1020.9 - 1.0 - - - - - - -
30/04:00am 20.0 SSE 8 14 1020.9 - 0.8 - - - - - - -
30/03:30am 20.5 SE 6 9 1021.0 - 0.4 - - - - - - -
30/03:00am 20.6 SSE 6 9 1021.0 - 0.4 - - - - - - -
30/02:30am 20.2 SSE 5 8 1021.3 - 0.4 - - - - - - -
30/02:00am 20.4 SE 4 6 1021.6 - 0.4 - - - - - - -
30/01:30am 20.6 SE 5 9 1021.9 - 0.4 - - - - - - -
30/01:00am 20.8 SSE 5 8 1022.3 - 0.4 - - - - - - -
30/12:30am 20.7 S 5 8 1022.6 - 0.4 - - - - - - -
30/12:00am 20.7 SSE 5 8 1022.6 - 0.4 - - - - - - -
 
Date/Time
EST
Temp

°C
Wind Pressure Rain
since 9am
mm
Weather Cloud Vis
km
Sea
Height
m
Swell
Dir
 
Speed
knots
Gust
knots
hPa Trend Height
m
Period
s
Dir
29/11:30pm 20.8 SSE 5 7 1023.0 - 0.4 - - - - - - -
29/11:00pm 21.1 SE 6 10 1023.3 - 0.4 - - - - - - -
29/10:30pm 21.2 SE 5 8 1023.5 - 0.4 - - - - - - -
29/10:00pm 21.3 SSE 6 9 1023.6 - 0.4 - - - - - - -
29/09:30pm 21.4 S 6 9 1023.5 - 0.4 - - - - - - -
29/09:00pm 21.4 S 7 10 1023.3 - 0.4 - - - - - - -
29/08:30pm 21.3 SSE 6 10 1023.2 - 0.4 - - - - - - -
29/08:00pm 21.3 SSE 7 11 1022.9 - 0.4 - - - - - - -
29/07:30pm 21.3 S 8 13 1022.6 - 0.4 - - - - - - -
29/07:00pm 21.2 SSE 11 17 1022.4 - 0.4 - - - - - - -
29/06:30pm 21.1 SSE 7 11 1022.0 - 0.4 - - - - - - -
29/06:00pm 21.1 S 7 12 1021.6 - 0.4 - - - - - - -
29/05:30pm 21.1 S 6 11 1021.5 - 0.4 - - - - - - -
29/05:00pm 21.1 S 6 12 1021.4 - 0.4 - - - - - - -
29/04:30pm 20.8 S 7 12 1021.1 - 0.4 - - - - - - -
29/04:00pm 20.4 S 7 12 1021.0 - 0.4 - - - - - - -
29/03:30pm 20.2 S 6 11 1021.1 - 0.4 - - - - - - -
29/03:00pm 20.8 S 7 11 1021.1 - 0.2 - - - - - - -
29/02:30pm 21.1 S 8 11 1021.3 - 0.0 - - - - - - -
29/02:00pm 21.4 S 8 12 1021.6 - 0.0 - - - - - - -
29/01:30pm 21.1 S 6 12 1021.8 - 0.0 - - - - - - -
29/01:00pm 20.4 S 7 11 1022.3 - 0.0 - - - - - - -
29/12:30pm 21.2 S 7 12 1022.7 - 0.0 - - - - - - -
29/12:00pm 22.1 S 10 16 1023.0 - 0.0 - - - - - - -
29/11:30am 21.7 S 7 11 1023.7 - 0.0 - - - - - - -
29/11:00am 21.6 S 5 8 1024.0 - 0.0 - - - - - - -
29/10:30am 21.4 SSW 6 10 1024.4 - 0.0 - - - - - - -
29/10:00am 21.2 S 6 10 1024.5 - 0.0 - - - - - - -
29/09:30am 21.1 S 7 12 1024.5 - 0.0 - - - - - - -
29/09:00am 20.7 S 7 12 1024.3 - 27.2 - - - - - - -
29/08:30am 20.5 S 10 17 1024.2 - 27.2 - - - - - - -
29/08:00am 20.5 S 7 12 1023.9 - 27.2 - - - - - - -
29/07:30am 19.9 S 8 15 1023.8 - 27.2 - - - - - - -
29/07:00am 19.9 S 9 14 1023.5 - 27.2 - - - - - - -
29/06:30am 20.0 S 9 14 1023.0 - 27.2 - - - - - - -
29/06:00am 20.2 SSW 9 13 1022.7 - 27.2 - - - - - - -
29/05:30am 20.3 S 8 11 1022.5 - 27.2 - - - - - - -
29/05:00am 20.2 S 5 9 1022.3 - 27.2 - - - - - - -
29/04:30am 20.3 S 6 12 1022.3 - 27.2 - - - - - - -
29/04:00am 20.5 S 6 9 1022.1 - 27.2 - - - - - - -
29/03:30am 20.6 S 6 11 1022.3 - 27.2 - - - - - - -
29/03:00am 20.6 S 5 10 1022.2 - 27.2 - - - - - - -
29/02:30am 20.7 S 6 9 1022.4 - 27.2 - - - - - - -
29/02:00am 20.7 S 5 9 1022.4 - 27.2 - - - - - - -
29/01:30am 20.7 S 5 9 1022.6 - 27.2 - - - - - - -
29/01:00am 20.6 S 5 7 1022.7 - 27.2 - - - - - - -
29/12:30am 20.8 S 5 9 1022.9 - 27.2 - - - - - - -
29/12:00am 20.7 SSE 3 7 1022.9 - 27.2 - - - - - - -
 
Date/Time
EST
Temp

°C
Wind Pressure Rain
since 9am
mm
Weather Cloud Vis
km
Sea
Height
m
Swell
Dir
 
Speed
knots
Gust
knots
hPa Trend Height
m
Period
s
Dir
28/11:30pm 20.8 SSE 4 5 1023.0 - 27.2 - - - - - - -
28/11:00pm 21.2 S 5 9 1023.4 - 27.2 - - - - - - -
28/10:30pm 21.3 S 5 9 1023.4 - 27.2 - - - - - - -
28/10:00pm 21.3 S 6 9 1023.4 - 27.2 - - - - - - -
28/09:30pm 21.3 SSW 7 12 1023.5 - 27.2 - - - - - - -
28/09:00pm 21.1 SSW 6 10 1023.3 - 27.2 - - - - - - -
28/08:30pm 20.9 S 7 10 1023.4 - 27.0 - - - - - - -
28/08:00pm 20.8 SSW 7 10 1023.2 - 26.8 - - - - - - -
28/07:30pm 20.6 S 9 17 1022.9 - 26.6 - - - - - - -
28/07:00pm 20.0 S 9 12 1022.6 - 26.4 - - - - - - -
28/06:30pm 19.7 S 8 11 1022.3 - 25.8 - - - - - - -
28/06:00pm 19.8 SSE 9 13 1022.1 - 24.8 - - - - - - -
28/05:30pm 20.2 SSE 7 16 1021.8 - 24.0 - - - - - - -
28/05:00pm 20.3 S 7 12 1021.4 - 23.0 - - - - - - -
28/04:30pm 20.3 SSE 9 15 1021.1 - 22.8 - - - - - - -
28/04:00pm 20.6 SSE 8 13 1020.8 - 22.2 - - - - - - -
28/03:30pm 20.8 SSE 9 15 1020.6 - 21.4 - - - - - - -
28/03:00pm 21.0 SE 9 14 1020.4 - 20.8 - - - - - - -
28/02:30pm 21.7 SSE 9 14 1020.5 - 19.2 - - - - - - -
28/02:00pm 22.4 SSE 10 16 1020.6 - 19.2 - - - - - - -
28/01:30pm 22.9 SSE 9 14 1020.8 - 19.2 - - - - - - -
28/01:00pm 21.5 SSE 8 13 1021.3 - 19.2 - - - - - - -
28/12:30pm 21.2 SSE 7 12 1021.9 - 18.2 - - - - - - -
28/12:00pm 21.2 E 5 8 1022.0 - 13.2 - - - - - - -
28/11:30am 21.6 ESE 6 9 1022.4 - 6.4 - - - - - - -
28/11:00am 21.7 SE 8 12 1022.6 - 2.4 - - - - - - -
28/10:30am 22.0 SSE 7 12 1022.6 - 1.4 - - - - - - -
28/10:00am 22.5 SSE 7 12 1022.7 - 0.2 - - - - - - -
28/09:30am 22.1 SSE 5 9 1022.6 - 0.0 - - - - - - -
28/09:00am 21.1 S 8 13 1022.4 - 1.4 - - - - - - -
28/08:30am 22.1 SSE 7 11 1022.1 - 0.4 - - - - - - -
28/08:00am 22.0 S 7 12 1021.8 - 0.4 - - - - - - -
28/07:30am 21.3 SW 7 10 1021.6 - 0.0 - - - - - - -
28/07:00am 21.7 SSW 6 12 1021.2 - 0.0 - - - - - - -
28/06:30am 21.6 SSW 7 10 1021.1 - 0.0 - - - - - - -
28/06:00am 19.4 NNE 1 4 1021.1 - 0.0 - - - - - - -
28/05:30am 19.1 CALM 0 3 1020.9 - 0.0 - - - - - - -
28/05:00am 18.8 CALM 0 4 1020.8 - 0.0 - - - - - - -
28/04:30am 18.8 SW 1 3 1020.7 - 0.0 - - - - - - -
28/04:00am 18.9 WSW 1 3 1020.9 - 0.0 - - - - - - -
28/03:30am 18.6 WNW 2 4 1020.9 - 0.0 - - - - - - -
28/03:00am 18.5 N 1 4 1021.0 - 0.0 - - - - - - -
28/02:30am 18.5 WSW 3 5 1021.3 - 0.0 - - - - - - -
28/02:00am 18.2 CALM 0 0 1021.5 - 0.0 - - - - - - -
28/01:30am 18.1 CALM 0 0 1021.7 - 0.0 - - - - - - -
28/01:00am 18.1 W 3 6 1021.8 - 0.0 - - - - - - -
28/12:30am 18.3 W 4 7 1022.0 - 0.0 - - - - - - -
28/12:00am 18.5 W 3 6 1022.1 - 0.0 - - - - - - -
 
Date/Time
EST
Temp

°C
Wind Pressure Rain
since 9am
mm
Weather Cloud Vis
km
Sea
Height
m
Swell
Dir
 
Speed
knots
Gust
knots
hPa Trend Height
m
Period
s
Dir
27/11:30pm 18.5 WSW 6 8 1022.3 - 0.0 - - - - - - -
27/11:00pm 18.6 WSW 6 7 1022.4 - 0.0 - - - - - - -
27/10:30pm 18.8 WSW 6 8 1022.6 - 0.0 - - - - - - -

Other Formats:

Comma delimited format used in spreadsheet applications
http://www.bom.gov.au/fwo/IDQ60701/IDQ60701.95292.axf

JavaScript Object Notation format (JSON) in row-major order
http://www.bom.gov.au/fwo/IDQ60701/IDQ60701.95292.json